createdAt,value
2022-09-27T00:01:10.795Z,5.23
2022-09-27T00:03:38.235Z,4.60
2022-09-27T00:06:24.047Z,4.07
2022-09-27T00:08:51.015Z,4.63
2022-09-27T00:11:39.746Z,4.40
2022-09-27T00:14:07.683Z,1.80
2022-09-27T00:16:38.719Z,2.83
2022-09-27T00:19:10.948Z,2.37
2022-09-27T00:21:37.968Z,2.17
2022-09-27T00:24:05.182Z,3.57
2022-09-27T00:26:32.592Z,2.40
2022-09-27T00:28:59.735Z,4.17
2022-09-27T00:31:33.255Z,2.70
2022-09-27T00:34:07.181Z,2.70
2022-09-27T00:36:37.147Z,3.53
2022-09-27T00:39:04.217Z,2.63
2022-09-27T00:41:37.047Z,4.33
2022-09-27T00:44:26.834Z,2.13
2022-09-27T00:47:01.981Z,1.37
2022-09-27T00:49:43.829Z,2.23
2022-09-27T00:52:18.793Z,2.10
2022-09-27T00:54:53.926Z,1.90
2022-09-27T00:57:23.291Z,5.03
2022-09-27T01:00:01.978Z,2.47
2022-09-27T01:02:30.052Z,2.47
2022-09-27T01:05:01.140Z,2.50
2022-09-27T01:07:28.006Z,2.47
2022-09-27T01:09:54.881Z,2.20
2022-09-27T01:12:55.211Z,1.30
2022-09-27T01:15:48.355Z,2.13
2022-09-27T01:18:56.194Z,1.53
2022-09-27T01:21:45.978Z,3.00
2022-09-27T01:24:39.869Z,2.83
2022-09-27T01:27:48.001Z,2.03
2022-09-27T01:30:23.619Z,2.17
2022-09-27T01:33:23.330Z,2.77
2022-09-27T01:36:06.566Z,3.10
2022-09-27T01:38:56.287Z,2.27
2022-09-27T01:42:16.443Z,4.13
2022-09-27T01:45:06.867Z,2.03
2022-09-27T01:48:23.907Z,2.13
2022-09-27T01:50:59.788Z,2.30
2022-09-27T01:53:36.262Z,2.83
2022-09-27T01:56:50.376Z,2.40
2022-09-27T01:59:41.884Z,1.53
2022-09-27T02:02:39.280Z,1.23
2022-09-27T02:05:43.596Z,2.30
2022-09-27T02:09:06.334Z,3.87
2022-09-27T02:11:56.433Z,2.47
2022-09-27T02:14:47.559Z,1.67
2022-09-27T02:17:44.060Z,1.27
2022-09-27T02:20:49.559Z,2.00
2022-09-27T02:23:34.245Z,1.17
2022-09-27T02:26:18.016Z,3.63
2022-09-27T02:29:08.348Z,2.93
2022-09-27T02:31:43.858Z,3.47
2022-09-27T02:34:25.926Z,2.27
2022-09-27T02:36:54.544Z,1.90
2022-09-27T02:39:23.959Z,1.07
2022-09-27T02:42:00.215Z,1.20
2022-09-27T02:44:33.061Z,2.10
2022-09-27T02:47:28.815Z,2.77
2022-09-27T02:50:33.347Z,0.93
2022-09-27T02:53:53.736Z,2.33
2022-09-27T02:57:37.706Z,3.40
2022-09-27T03:00:20.647Z,4.37
2022-09-27T03:03:09.405Z,3.43
2022-09-27T03:06:02.870Z,1.93
2022-09-27T03:08:31.333Z,2.37
2022-09-27T03:10:58.229Z,3.33
2022-09-27T03:13:25.735Z,3.17
2022-09-27T03:15:53.230Z,1.47
2022-09-27T03:18:38.739Z,2.17
2022-09-27T03:21:43.760Z,2.57
2022-09-27T03:24:10.829Z,2.17
2022-09-27T03:26:38.113Z,3.47
2022-09-27T03:29:05.101Z,2.23
2022-09-27T03:31:32.856Z,2.73
2022-09-27T03:34:26.935Z,2.80
2022-09-27T03:36:53.978Z,2.00
2022-09-27T03:39:21.105Z,3.33
2022-09-27T03:41:48.091Z,2.00
2022-09-27T03:44:15.201Z,3.27
2022-09-27T03:46:43.338Z,3.47
2022-09-27T03:49:12.687Z,2.87
2022-09-27T03:51:39.776Z,1.77
2022-09-27T03:54:06.691Z,3.73
2022-09-27T03:56:33.683Z,2.33
2022-09-27T03:59:01.241Z,3.10
2022-09-27T04:01:39.065Z,2.97
2022-09-27T04:04:31.792Z,4.10
2022-09-27T04:06:59.233Z,4.00
2022-09-27T04:09:26.863Z,3.23
2022-09-27T04:12:01.050Z,2.50
2022-09-27T04:14:28.041Z,3.33
2022-09-27T04:17:13.356Z,2.73
2022-09-27T04:19:58.807Z,3.27
2022-09-27T04:22:28.320Z,2.53
2022-09-27T04:24:55.797Z,2.17
2022-09-27T04:27:35.497Z,3.60
2022-09-27T04:30:03.009Z,2.30
2022-09-27T04:32:53.031Z,1.67
2022-09-27T04:36:13.811Z,1.37
2022-09-27T04:38:49.837Z,1.20
2022-09-27T04:41:23.387Z,3.23
2022-09-27T04:43:58.994Z,0.70
2022-09-27T04:46:31.749Z,1.53
2022-09-27T04:49:02.352Z,0.80
2022-09-27T04:51:34.460Z,0.87
2022-09-27T04:54:01.950Z,2.17
2022-09-27T04:56:34.969Z,1.43
2022-09-27T04:59:09.761Z,1.77
2022-09-27T05:01:37.808Z,2.13
2022-09-27T05:04:20.246Z,2.37
2022-09-27T05:06:54.892Z,7.63
2022-09-27T05:09:34.751Z,1.07
2022-09-27T05:12:02.051Z,1.83
2022-09-27T05:14:43.838Z,2.50
2022-09-27T05:17:17.267Z,1.37
2022-09-27T05:19:54.211Z,2.67
2022-09-27T05:22:32.297Z,1.07
2022-09-27T05:24:59.364Z,3.43
2022-09-27T05:27:27.150Z,1.97
2022-09-27T05:29:55.461Z,2.90
2022-09-27T05:32:26.299Z,1.43
2022-09-27T05:35:13.226Z,1.23
2022-09-27T05:37:40.940Z,1.67
2022-09-27T05:40:22.598Z,2.80
2022-09-27T05:42:56.730Z,3.33
2022-09-27T05:45:25.667Z,0.50
2022-09-27T05:47:58.337Z,3.20
2022-09-27T05:50:27.762Z,1.90
2022-09-27T05:52:55.406Z,1.83
2022-09-27T05:55:23.932Z,1.93
2022-09-27T05:58:14.421Z,2.30
2022-09-27T06:00:49.552Z,2.57
2022-09-27T06:03:42.929Z,0.60
2022-09-27T06:06:28.454Z,1.10
2022-09-27T06:08:57.869Z,0.90
2022-09-27T06:11:27.475Z,1.60
2022-09-27T06:13:54.685Z,0.73
2022-09-27T06:16:22.670Z,1.43
2022-09-27T06:18:55.224Z,2.40
2022-09-27T06:21:22.720Z,1.87
2022-09-27T06:23:56.396Z,1.03
2022-09-27T06:26:33.670Z,2.77
2022-09-27T06:29:15.070Z,3.57
2022-09-27T06:31:49.056Z,1.80
2022-09-27T06:34:35.031Z,1.80
2022-09-27T06:37:02.102Z,1.50
2022-09-27T06:39:32.843Z,2.83
2022-09-27T06:42:06.760Z,2.27
2022-09-27T06:45:06.786Z,3.47
2022-09-27T06:47:53.106Z,1.57
2022-09-27T06:50:49.405Z,2.60
2022-09-27T06:53:17.665Z,2.10
2022-09-27T06:55:45.439Z,3.53
2022-09-27T06:58:33.831Z,1.63
2022-09-27T07:01:20.469Z,1.93
2022-09-27T07:04:25.723Z,3.03
2022-09-27T07:07:13.819Z,1.90
2022-09-27T07:09:50.056Z,1.37
2022-09-27T07:12:17.669Z,1.40
2022-09-27T07:14:44.638Z,2.83
2022-09-27T07:17:16.727Z,1.47
2022-09-27T07:19:45.977Z,1.93
2022-09-27T07:22:14.047Z,2.00
2022-09-27T07:24:45.306Z,2.43
2022-09-27T07:27:13.199Z,2.20
2022-09-27T07:29:41.649Z,3.57
2022-09-27T07:32:09.050Z,3.27
2022-09-27T07:34:38.063Z,3.00
2022-09-27T07:37:05.594Z,2.63
2022-09-27T07:39:36.686Z,5.53
2022-09-27T07:42:03.920Z,3.27
2022-09-27T07:44:33.981Z,2.90
2022-09-27T07:47:19.679Z,3.67
2022-09-27T07:50:07.602Z,2.97
2022-09-27T07:52:51.208Z,5.20
2022-09-27T07:55:42.372Z,3.90
2022-09-27T07:58:21.767Z,3.93
2022-09-27T08:00:51.027Z,3.63
2022-09-27T08:03:18.560Z,3.70
2022-09-27T08:05:48.806Z,3.33
2022-09-27T08:08:17.275Z,4.40
2022-09-27T08:10:47.568Z,4.20
2022-09-27T08:13:20.403Z,3.53
2022-09-27T08:15:49.166Z,3.53
2022-09-27T08:18:17.602Z,4.37
2022-09-27T08:20:57.940Z,3.97
2022-09-27T08:23:32.398Z,3.83
2022-09-27T08:26:19.016Z,4.00
2022-09-27T08:28:53.096Z,4.93
2022-09-27T08:31:25.393Z,4.57
2022-09-27T08:33:54.962Z,3.87
2022-09-27T08:36:24.048Z,5.47
2022-09-27T08:38:52.063Z,5.43
2022-09-27T08:42:06.402Z,5.00
2022-09-27T08:45:03.673Z,6.07
2022-09-27T08:47:50.257Z,6.60
2022-09-27T08:50:39.671Z,6.90
2022-09-27T08:53:14.273Z,7.43
2022-09-27T08:55:56.830Z,6.97
2022-09-27T08:58:43.580Z,7.67
2022-09-27T09:01:19.540Z,7.67
2022-09-27T09:04:08.938Z,8.00
2022-09-27T09:06:52.894Z,7.40
2022-09-27T09:09:43.926Z,10.00
2022-09-27T09:12:48.208Z,7.20
2022-09-27T09:15:57.076Z,7.87
2022-09-27T09:18:56.371Z,7.87
2022-09-27T09:22:05.829Z,8.27
2022-09-27T09:25:10.863Z,8.87
2022-09-27T09:27:56.969Z,8.87
2022-09-27T09:30:50.601Z,10.00
2022-09-27T09:33:37.678Z,9.27
2022-09-27T09:36:15.762Z,9.20
2022-09-27T09:38:52.411Z,8.93
2022-09-27T09:41:37.871Z,10.53
2022-09-27T09:44:29.561Z,9.53
2022-09-27T09:47:10.251Z,9.83
2022-09-27T09:49:55.131Z,8.73
2022-09-27T09:52:39.852Z,8.87
2022-09-27T09:55:19.626Z,7.80
2022-09-27T09:58:05.881Z,7.50
2022-09-27T10:00:43.400Z,6.67
2022-09-27T10:03:10.576Z,6.40
2022-09-27T10:05:37.990Z,5.73
2022-09-27T10:08:23.032Z,4.40
2022-09-27T10:11:00.985Z,4.00
2022-09-27T10:13:49.007Z,3.10
2022-09-27T10:16:19.995Z,2.97
2022-09-27T10:18:50.323Z,2.23
2022-09-27T10:21:27.989Z,3.00
2022-09-27T10:24:12.400Z,2.40
2022-09-27T10:27:01.287Z,2.37
2022-09-27T10:29:37.568Z,1.97
2022-09-27T10:32:27.839Z,3.10
2022-09-27T10:35:37.852Z,2.27
2022-09-27T10:38:34.467Z,2.63
2022-09-27T10:41:33.013Z,1.80
2022-09-27T10:44:18.131Z,2.67
2022-09-27T10:46:53.490Z,1.80
2022-09-27T10:49:44.955Z,2.33
2022-09-27T10:52:33.230Z,1.87
2022-09-27T10:55:27.646Z,2.23
2022-09-27T10:58:02.121Z,2.40
2022-09-27T11:00:36.465Z,1.20
2022-09-27T11:03:16.875Z,0.50
2022-09-27T11:05:47.495Z,1.07
2022-09-27T11:08:24.042Z,2.00
2022-09-27T11:11:25.683Z,0.97
2022-09-27T11:14:25.201Z,1.03
2022-09-27T11:17:16.175Z,0.43
2022-09-27T11:20:19.366Z,0.77
2022-09-27T11:23:14.634Z,0.63
2022-09-27T11:26:14.682Z,0.40
2022-09-27T11:29:19.275Z,0.40
2022-09-27T11:32:35.429Z,0.50
2022-09-27T11:35:50.040Z,0.40
2022-09-27T11:38:52.908Z,1.20
2022-09-27T11:41:59.427Z,0.80
2022-09-27T11:45:13.471Z,1.07
2022-09-27T11:48:05.659Z,0.60
2022-09-27T11:51:23.380Z,1.60
2022-09-27T11:54:34.035Z,0.33
2022-09-27T11:57:28.991Z,0.70
2022-09-27T12:00:09.730Z,0.50
2022-09-27T12:03:23.305Z,0.70
2022-09-27T12:06:12.233Z,1.33
2022-09-27T12:09:08.324Z,1.03
2022-09-27T12:12:05.885Z,1.27
2022-09-27T12:14:44.773Z,1.60
2022-09-27T12:17:30.914Z,0.67
2022-09-27T12:20:06.427Z,0.53
2022-09-27T12:23:17.975Z,0.67
2022-09-27T12:26:03.463Z,2.77
2022-09-27T12:28:51.099Z,0.50
2022-09-27T12:31:29.781Z,0.77
2022-09-27T12:34:50.276Z,1.77
2022-09-27T12:37:42.295Z,1.90
2022-09-27T12:40:38.840Z,0.77
2022-09-27T12:43:25.632Z,1.23
2022-09-27T12:46:52.358Z,1.48
2022-09-27T12:49:38.016Z,11.05
2022-09-27T12:52:14.805Z,0.90
2022-09-27T12:55:10.016Z,0.63
2022-09-27T12:58:10.071Z,1.15
2022-09-27T13:01:01.126Z,1.83
2022-09-27T13:04:14.855Z,0.88
2022-09-27T13:07:27.916Z,0.77
2022-09-27T13:11:06.850Z,1.67
2022-09-27T13:13:39.837Z,1.27
2022-09-27T13:16:10.241Z,3.28
2022-09-27T13:18:59.421Z,2.03
2022-09-27T13:21:55.053Z,2.77
2022-09-27T13:24:49.874Z,2.00
2022-09-27T13:27:38.349Z,1.55
2022-09-27T13:30:12.166Z,1.80
2022-09-27T13:33:08.782Z,2.10
2022-09-27T13:36:28.287Z,1.43
2022-09-27T13:39:10.416Z,1.77
2022-09-27T13:42:10.487Z,2.20
2022-09-27T13:44:40.575Z,3.53
2022-09-27T13:47:25.118Z,2.38
2022-09-27T13:50:17.043Z,1.75
2022-09-27T13:53:18.478Z,2.35
2022-09-27T13:55:49.386Z,4.10
2022-09-27T13:58:43.564Z,2.45
2022-09-27T14:01:40.021Z,2.22
2022-09-27T14:04:22.746Z,1.77
2022-09-27T14:06:57.364Z,3.17
2022-09-27T14:09:35.621Z,3.20
2022-09-27T14:12:28.173Z,2.53
2022-09-27T14:14:58.835Z,2.22
2022-09-27T14:17:26.695Z,2.70
2022-09-27T14:19:54.333Z,3.17
2022-09-27T14:22:24.853Z,1.90
2022-09-27T14:25:04.800Z,2.13
2022-09-27T14:27:38.513Z,2.17
2022-09-27T14:30:35.191Z,1.33
2022-09-27T14:33:35.997Z,2.17
2022-09-27T14:36:39.501Z,2.60
2022-09-27T14:39:22.176Z,0.90
2022-09-27T14:41:51.924Z,0.90
2022-09-27T14:44:23.623Z,1.13
2022-09-27T14:47:23.927Z,0.63
2022-09-27T14:50:14.621Z,3.30
2022-09-27T14:52:41.796Z,0.73
2022-09-27T14:55:20.797Z,0.70
2022-09-27T14:57:53.702Z,1.13
2022-09-27T15:00:32.113Z,2.40
2022-09-27T15:03:04.670Z,2.40
2022-09-27T15:05:36.100Z,3.37
2022-09-27T15:08:06.569Z,1.50
2022-09-27T15:10:37.715Z,0.97
2022-09-27T15:13:06.986Z,2.53
2022-09-27T15:15:39.807Z,2.90
2022-09-27T15:18:34.166Z,1.97
2022-09-27T15:21:02.339Z,2.23
2022-09-27T15:23:36.531Z,1.67
2022-09-27T15:26:39.939Z,2.33
2022-09-27T15:29:17.792Z,1.43
2022-09-27T15:31:45.038Z,2.30
2022-09-27T15:34:20.312Z,2.13
2022-09-27T15:36:56.010Z,5.90
2022-09-27T15:39:41.697Z,2.97
2022-09-27T15:42:17.564Z,1.77
2022-09-27T15:44:57.898Z,3.53
2022-09-27T15:47:40.236Z,2.73
2022-09-27T15:50:16.153Z,1.80
2022-09-27T15:52:49.417Z,3.73
2022-09-27T15:55:19.637Z,1.33
2022-09-27T15:57:59.362Z,2.47
2022-09-27T16:00:27.173Z,2.50
2022-09-27T16:02:54.349Z,3.20
2022-09-27T16:05:23.751Z,2.23
2022-09-27T16:07:51.444Z,1.83
2022-09-27T16:10:21.434Z,4.50
2022-09-27T16:12:51.015Z,3.10
2022-09-27T16:15:18.678Z,2.83
2022-09-27T16:17:45.852Z,0.93
2022-09-27T16:20:25.003Z,2.73
2022-09-27T16:22:54.088Z,1.93
2022-09-27T16:25:22.640Z,1.93
2022-09-27T16:27:57.364Z,2.30
2022-09-27T16:30:24.653Z,2.53
2022-09-27T16:32:52.076Z,3.00
2022-09-27T16:35:35.536Z,2.10
2022-09-27T16:38:03.316Z,1.30
2022-09-27T16:40:33.327Z,3.37
2022-09-27T16:43:00.317Z,2.40
2022-09-27T16:45:34.113Z,1.27
2022-09-27T16:48:01.846Z,2.17
2022-09-27T16:50:47.477Z,1.60
2022-09-27T16:53:14.879Z,2.93
2022-09-27T16:55:41.827Z,5.00
2022-09-27T16:58:08.742Z,2.20
2022-09-27T17:00:38.981Z,2.77
2022-09-27T17:03:06.749Z,3.53
2022-09-27T17:05:33.669Z,2.00
2022-09-27T17:08:01.597Z,2.63
2022-09-27T17:10:28.917Z,3.63
2022-09-27T17:12:58.052Z,4.17
2022-09-27T17:15:26.370Z,3.10
2022-09-27T17:17:53.262Z,2.23
2022-09-27T17:20:20.169Z,2.07
2022-09-27T17:22:48.425Z,2.80
2022-09-27T17:25:15.307Z,2.03
2022-09-27T17:27:42.244Z,1.67
2022-09-27T17:30:09.841Z,2.30
2022-09-27T17:32:38.478Z,2.63
2022-09-27T17:35:06.593Z,2.60
2022-09-27T17:37:33.527Z,1.80
2022-09-27T17:40:00.422Z,2.57
2022-09-27T17:42:28.826Z,1.83
2022-09-27T17:44:55.798Z,1.90
2022-09-27T17:47:41.318Z,2.60
2022-09-27T17:50:25.366Z,4.80
2022-09-27T17:52:53.770Z,2.80
2022-09-27T17:55:21.768Z,1.57
2022-09-27T17:57:50.471Z,1.20
2022-09-27T18:00:19.226Z,0.73
2022-09-27T18:02:49.407Z,1.33
2022-09-27T18:05:18.368Z,1.80
2022-09-27T18:07:47.259Z,2.30
2022-09-27T18:10:15.121Z,1.90
2022-09-27T18:12:43.016Z,2.37
2022-09-27T18:15:10.058Z,1.30
2022-09-27T18:17:37.372Z,1.93
2022-09-27T18:20:06.712Z,2.70
2022-09-27T18:22:33.544Z,1.90
2022-09-27T18:25:00.964Z,1.47
2022-09-27T18:27:29.478Z,1.83
2022-09-27T18:29:56.385Z,3.00
2022-09-27T18:32:23.290Z,1.40
2022-09-27T18:34:50.129Z,2.20
2022-09-27T18:37:17.007Z,2.17
2022-09-27T18:39:43.837Z,1.47
2022-09-27T18:42:10.724Z,1.53
2022-09-27T18:44:37.668Z,2.43
2022-09-27T18:47:04.656Z,2.63
2022-09-27T18:49:34.041Z,2.13
2022-09-27T18:52:02.560Z,1.97
2022-09-27T18:54:31.777Z,2.03
2022-09-27T18:56:58.680Z,1.80
2022-09-27T18:59:25.712Z,1.70
2022-09-27T19:01:52.720Z,2.63
2022-09-27T19:04:25.832Z,1.90
2022-09-27T19:06:55.229Z,3.83
2022-09-27T19:09:22.487Z,1.50
2022-09-27T19:11:49.515Z,3.37
2022-09-27T19:14:20.674Z,5.50
2022-09-27T19:16:48.718Z,2.97
2022-09-27T19:19:17.381Z,2.60
2022-09-27T19:21:45.624Z,1.90
2022-09-27T19:24:14.274Z,2.13
2022-09-27T19:26:41.730Z,2.67
2022-09-27T19:29:08.850Z,3.43
2022-09-27T19:31:37.103Z,1.90
2022-09-27T19:34:04.670Z,1.80
2022-09-27T19:36:31.786Z,1.80
2022-09-27T19:38:59.854Z,3.47
2022-09-27T19:41:26.989Z,2.27
2022-09-27T19:43:55.918Z,1.90
2022-09-27T19:46:24.662Z,3.57
2022-09-27T19:48:52.776Z,1.57
2022-09-27T19:51:26.787Z,1.50
2022-09-27T19:53:54.677Z,2.23
2022-09-27T19:56:23.510Z,2.00
2022-09-27T19:58:50.891Z,3.27
2022-09-27T20:01:21.392Z,2.47
2022-09-27T20:03:51.617Z,2.27
2022-09-27T20:06:20.657Z,2.17
2022-09-27T20:08:49.505Z,1.70
2022-09-27T20:11:23.262Z,2.27
2022-09-27T20:13:53.057Z,1.87
2022-09-27T20:16:24.020Z,2.47
2022-09-27T20:18:54.376Z,2.13
2022-09-27T20:21:25.178Z,1.67
2022-09-27T20:23:55.528Z,2.50
2022-09-27T20:26:25.005Z,3.53
2022-09-27T20:28:55.135Z,1.50
2022-09-27T20:31:29.710Z,2.27
2022-09-27T20:33:57.463Z,1.60
2022-09-27T20:36:33.868Z,1.80
2022-09-27T20:39:04.959Z,1.67
2022-09-27T20:41:36.237Z,1.70
2022-09-27T20:44:07.166Z,2.30
2022-09-27T20:46:35.910Z,2.07
2022-09-27T20:49:08.391Z,1.80
2022-09-27T20:51:39.193Z,1.77
2022-09-27T20:54:08.943Z,2.67
2022-09-27T20:56:47.392Z,1.67
2022-09-27T20:59:19.124Z,3.63
2022-09-27T21:01:49.649Z,2.07
2022-09-27T21:04:19.321Z,1.50
2022-09-27T21:06:49.631Z,2.50
2022-09-27T21:09:19.911Z,2.17
2022-09-27T21:11:52.537Z,1.80
2022-09-27T21:14:19.998Z,2.33
2022-09-27T21:16:47.740Z,1.83
2022-09-27T21:19:14.829Z,1.70
2022-09-27T21:21:42.260Z,4.00
2022-09-27T21:24:09.233Z,2.83
2022-09-27T21:26:36.287Z,2.60
2022-09-27T21:29:09.047Z,1.90
2022-09-27T21:31:37.309Z,1.90
2022-09-27T21:34:06.469Z,1.50
2022-09-27T21:36:37.892Z,3.43
2022-09-27T21:39:09.481Z,1.63
2022-09-27T21:41:38.792Z,1.43
2022-09-27T21:44:06.919Z,1.57
2022-09-27T21:46:34.426Z,1.97
2022-09-27T21:49:02.589Z,1.60
2022-09-27T21:51:33.024Z,2.60
2022-09-27T21:54:03.571Z,2.20
2022-09-27T21:56:34.918Z,2.23
2022-09-27T21:59:02.267Z,1.90
2022-09-27T22:01:42.982Z,1.73
2022-09-27T22:04:10.200Z,3.13
2022-09-27T22:06:39.977Z,2.17
2022-09-27T22:09:12.092Z,2.87
2022-09-27T22:11:44.314Z,5.70
2022-09-27T22:14:13.521Z,3.40
2022-09-27T22:16:40.718Z,2.07
2022-09-27T22:19:08.145Z,4.13
2022-09-27T22:21:38.105Z,3.27
2022-09-27T22:24:14.522Z,2.93
2022-09-27T22:26:50.215Z,2.50
2022-09-27T22:29:17.905Z,4.03
2022-09-27T22:31:45.017Z,3.60
2022-09-27T22:34:18.824Z,4.23
2022-09-27T22:36:47.951Z,3.73
2022-09-27T22:39:15.011Z,2.97
2022-09-27T22:41:42.816Z,3.30
2022-09-27T22:44:09.800Z,3.20
2022-09-27T22:46:36.718Z,3.27
2022-09-27T22:49:06.715Z,2.70
2022-09-27T22:51:33.595Z,3.73
2022-09-27T22:54:00.606Z,4.30
2022-09-27T22:56:27.639Z,3.50
2022-09-27T22:58:54.658Z,3.57
2022-09-27T23:01:25.347Z,4.80
2022-09-27T23:03:54.003Z,3.47
2022-09-27T23:06:23.290Z,4.67
2022-09-27T23:08:51.666Z,4.20
2022-09-27T23:11:22.361Z,3.67
2022-09-27T23:13:51.120Z,3.80
2022-09-27T23:16:24.425Z,3.90
2022-09-27T23:18:56.753Z,3.90
2022-09-27T23:21:26.121Z,6.47
2022-09-27T23:23:56.052Z,4.47
2022-09-27T23:26:26.411Z,3.60
2022-09-27T23:28:57.939Z,4.20
2022-09-27T23:31:31.424Z,5.57
2022-09-27T23:34:03.057Z,5.00
2022-09-27T23:36:31.017Z,4.07
2022-09-27T23:39:01.608Z,6.03
2022-09-27T23:41:32.361Z,4.53
2022-09-27T23:43:59.344Z,4.50
2022-09-27T23:46:26.584Z,4.47
2022-09-27T23:48:54.627Z,4.80
2022-09-27T23:51:21.666Z,7.43
2022-09-27T23:53:49.096Z,5.30
2022-09-27T23:56:18.026Z,4.83
2022-09-27T23:58:49.237Z,4.60
